Time,TemperatureF,DewpointF,PressureIn,WindDirection,WindDirectionDegrees,WindSpeedMPH,WindSpeedGustMPH,Humidity,HourlyPrecipIn,Conditions,Clouds,dailyrainin,SoftwareType,DateUTC
2013-02-28 00:00:00,33.1,29.9,29.49,WSW,242,1.0,5.0,88,0.00,,,0.23,VWS V14.01,2013-02-28 05:00:00,
2013-02-28 00:01:00,33.1,29.9,29.49,WSW,243,2.0,5.0,88,0.00,,,0.23,VWS V14.01,2013-02-28 05:01:00,
2013-02-28 00:04:00,33.1,29.9,29.49,WSW,242,0.0,5.0,88,0.00,,,0.23,VWS V14.01,2013-02-28 05:04:00,
2013-02-28 00:05:00,33.1,29.7,29.49,WSW,237,3.0,3.0,87,0.00,,,0.00,VWS V14.01,2013-02-28 05:05:00,
2013-02-28 00:10:00,33.1,29.7,29.49,SSW,207,2.0,5.0,87,0.00,,,0.00,VWS V14.01,2013-02-28 05:10:00,
2013-02-28 00:16:00,33.1,29.4,29.49,WSW,246,2.0,6.0,86,0.00,,,0.00,VWS V14.01,2013-02-28 05:16:00,
2013-02-28 00:21:00,33.1,29.4,29.49,SW,227,3.0,6.0,86,0.00,,,0.00,VWS V14.01,2013-02-28 05:21:00,
2013-02-28 00:27:00,33.1,29.4,29.49,South,171,1.0,6.0,86,0.00,,,0.00,VWS V14.01,2013-02-28 05:27:00,
2013-02-28 00:32:00,33.1,29.4,29.49,SW,233,0.0,6.0,86,0.00,,,0.00,VWS V14.01,2013-02-28 05:32:00,
2013-02-28 00:38:00,33.1,29.1,29.49,SSW,211,2.0,6.0,85,0.00,,,0.00,VWS V14.01,2013-02-28 05:38:00,
2013-02-28 00:44:00,33.1,29.1,29.49,WSW,238,2.0,6.0,85,0.00,,,0.00,VWS V14.01,2013-02-28 05:44:00,
2013-02-28 00:49:00,33.1,29.1,29.49,WSW,242,0.0,6.0,85,0.00,,,0.00,VWS V14.01,2013-02-28 05:49:00,
2013-02-28 00:55:00,33.1,28.8,29.49,SW,226,3.0,6.0,84,0.00,,,0.00,VWS V14.01,2013-02-28 05:55:00,
2013-02-28 01:00:00,33.1,28.8,29.49,WSW,237,3.0,6.0,84,0.00,,,0.00,VWS V14.01,2013-02-28 06:00:00,
2013-02-28 01:05:00,33.1,28.8,29.49,SSW,200,1.0,1.0,84,0.00,,OVC018,0.00,VWS V14.01,2013-02-28 06:05:00,
2013-02-28 01:10:00,33.1,28.8,29.49,SW,233,0.0,4.0,84,0.00,,OVC018,0.00,VWS V14.01,2013-02-28 06:10:00,
2013-02-28 01:15:00,33.1,29.1,29.49,SW,233,0.0,4.0,85,0.00,,OVC018,0.00,VWS V14.01,2013-02-28 06:15:00,
2013-02-28 01:20:00,32.9,28.9,29.49,SW,233,1.0,4.0,85,0.00,,OVC018,0.00,VWS V14.01,2013-02-28 06:20:00,
2013-02-28 01:26:00,32.9,28.9,29.49,SW,233,0.0,4.0,85,0.00,,OVC018,0.00,VWS V14.01,2013-02-28 06:26:00,
2013-02-28 01:31:00,32.8,29.1,29.49,SW,233,2.0,4.0,86,0.00,,OVC018,0.00,VWS V14.01,2013-02-28 06:31:00,
2013-02-28 01:36:00,32.8,28.8,29.49,WSW,247,2.0,7.0,85,0.00,,OVC018,0.00,VWS V14.01,2013-02-28 06:36:00,
2013-02-28 01:41:00,32.8,28.5,29.49,SW,217,3.0,7.0,84,0.00,,OVC018,0.00,VWS V14.01,2013-02-28 06:41:00,
2013-02-28 01:46:00,32.8,28.5,29.49,SW,230,0.0,7.0,84,0.00,,OVC018,0.00,VWS V14.01,2013-02-28 06:46:00,
2013-02-28 01:51:00,32.8,28.5,29.49,SW,219,0.0,7.0,84,0.00,,OVC029,0.00,VWS V14.01,2013-02-28 06:51:00,
2013-02-28 01:57:00,32.7,28.1,29.49,West,267,2.0,7.0,83,0.00,,OVC029,0.00,VWS V14.01,2013-02-28 06:57:00,
2013-02-28 02:02:00,32.7,28.1,29.49,SW,217,3.0,7.0,83,0.00,,OVC029,0.00,VWS V14.01,2013-02-28 07:02:00,
2013-02-28 02:08:00,32.5,27.9,29.49,SW,216,1.0,7.0,83,0.00,,OVC060,0.00,VWS V14.01,2013-02-28 07:08:00,
2013-02-28 02:14:00,32.5,27.9,29.49,NW,311,2.0,7.0,83,0.00,,OVC060,0.00,VWS V14.01,2013-02-28 07:14:00,
2013-02-28 02:19:00,32.5,27.6,29.49,SW,234,0.0,8.0,82,0.00,,OVC060,0.00,VWS V14.01,2013-02-28 07:19:00,
2013-02-28 02:25:00,32.5,27.6,29.49,WSW,242,2.0,8.0,82,0.00,,OVC060,0.00,VWS V14.01,2013-02-28 07:25:00,
2013-02-28 02:30:00,32.4,27.5,29.49,SSW,204,1.0,8.0,82,0.00,,OVC060,0.00,VWS V14.01,2013-02-28 07:30:00,
2013-02-28 02:36:00,32.4,27.5,29.48,SW,229,2.0,2.0,82,0.00,,OVC060,0.00,VWS V14.01,2013-02-28 07:36:00,
2013-02-28 02:41:00,32.4,27.5,29.48,SW,215,1.0,3.0,82,0.00,,OVC060,0.00,VWS V14.01,2013-02-28 07:41:00,
2013-02-28 02:46:00,32.4,27.5,29.48,WSW,245,3.0,5.0,82,0.00,,OVC060,0.00,VWS V14.01,2013-02-28 07:46:00,
2013-02-28 02:51:00,32.4,27.5,29.48,SW,235,1.0,6.0,82,0.00,,OVC060,0.00,VWS V14.01,2013-02-28 07:51:00,
2013-02-28 02:57:00,32.4,27.5,29.48,West,277,0.0,6.0,82,0.00,,OVC060,0.00,VWS V14.01,2013-02-28 07:57:00,
2013-02-28 03:02:00,32.4,27.5,29.48,West,278,1.0,6.0,82,0.00,,OVC060,0.00,VWS V14.01,2013-02-28 08:02:00,
2013-02-28 03:07:00,32.4,27.5,29.48,SSW,194,3.0,5.0,82,0.00,,OVC027,0.00,VWS V14.01,2013-02-28 08:07:00,
2013-02-28 03:12:00,32.4,27.5,29.48,SW,232,4.0,5.0,82,0.00,,OVC027,0.00,VWS V14.01,2013-02-28 08:12:00,
2013-02-28 03:17:00,32.4,27.5,29.48,WSW,238,0.0,6.0,82,0.00,,OVC027,0.00,VWS V14.01,2013-02-28 08:17:00,
2013-02-28 03:22:00,32.4,27.5,29.48,SSW,209,1.0,6.0,82,0.00,,OVC027,0.00,VWS V14.01,2013-02-28 08:22:00,
2013-02-28 03:28:00,32.4,27.5,29.48,WSW,243,2.0,6.0,82,0.00,,OVC027,0.00,VWS V14.01,2013-02-28 08:28:00,
2013-02-28 03:34:00,32.2,27.0,29.48,SSW,211,1.0,6.0,81,0.00,,OVC027,0.00,VWS V14.01,2013-02-28 08:34:00,
2013-02-28 03:39:00,32.4,27.2,29.48,WSW,250,4.0,6.0,81,0.00,,OVC027,0.00,VWS V14.01,2013-02-28 08:39:00,
2013-02-28 03:45:00,32.4,27.2,29.48,WSW,238,5.0,7.0,81,0.00,,OVC027,0.00,VWS V14.01,2013-02-28 08:45:00,
2013-02-28 03:50:00,32.2,27.0,29.47,SW,236,3.0,9.0,81,0.00,,OVC027,0.00,VWS V14.01,2013-02-28 08:50:00,
2013-02-28 03:55:00,32.4,27.2,29.47,WSW,251,3.0,9.0,81,0.00,,OVC027,0.00,VWS V14.01,2013-02-28 08:55:00,
2013-02-28 04:00:00,32.4,27.2,29.47,West,259,4.0,9.0,81,0.00,,OVC027,0.00,VWS V14.01,2013-02-28 09:00:00,
2013-02-28 04:05:00,32.4,27.2,29.47,West,265,3.0,6.0,81,0.00,,OVC017,0.00,VWS V14.01,2013-02-28 09:05:00,
2013-02-28 04:10:00,32.4,27.2,29.47,SSW,206,0.0,7.0,81,0.00,,OVC017,0.00,VWS V14.01,2013-02-28 09:10:00,
2013-02-28 04:16:00,32.2,27.3,29.47,West,263,0.0,7.0,82,0.00,,OVC017,0.00,VWS V14.01,2013-02-28 09:16:00,
2013-02-28 04:21:00,32.4,27.5,29.47,SW,233,1.0,7.0,82,0.00,,OVC017,0.00,VWS V14.01,2013-02-28 09:21:00,
2013-02-28 04:27:00,32.2,27.3,29.47,WSW,247,3.0,7.0,82,0.00,,OVC017,0.00,VWS V14.01,2013-02-28 09:27:00,
2013-02-28 04:32:00,32.4,27.5,29.48,SW,227,1.0,7.0,82,0.00,,OVC017,0.00,VWS V14.01,2013-02-28 09:32:00,
2013-02-28 04:38:00,32.4,27.2,29.48,West,279,4.0,6.0,81,0.00,,OVC017,0.00,VWS V14.01,2013-02-28 09:38:00,
2013-02-28 04:44:00,32.4,27.5,29.48,SSW,211,2.0,8.0,82,0.00,,OVC017,0.00,VWS V14.01,2013-02-28 09:44:00,
2013-02-28 04:49:00,32.2,27.3,29.48,West,269,0.0,8.0,82,0.00,,OVC017,0.00,VWS V14.01,2013-02-28 09:49:00,
2013-02-28 04:55:00,32.2,27.3,29.48,WSW,240,5.0,8.0,82,0.00,,OVC017,0.00,VWS V14.01,2013-02-28 09:55:00,
2013-02-28 05:00:00,32.2,27.6,29.48,WSW,240,1.0,8.0,83,0.00,,OVC017,0.00,VWS V14.01,2013-02-28 10:00:00,
2013-02-28 05:05:00,32.2,27.6,29.48,WSW,240,0.0,6.0,83,0.00,,OVC015,0.00,VWS V14.01,2013-02-28 10:05:00,
2013-02-28 05:10:00,32.2,27.6,29.48,WSW,240,4.0,8.0,83,0.00,,OVC015,0.00,VWS V14.01,2013-02-28 10:10:00,
2013-02-28 05:16:00,32.2,27.6,29.48,WSW,250,1.0,8.0,83,0.00,,OVC015,0.00,VWS V14.01,2013-02-28 10:16:00,
2013-02-28 05:21:00,32.1,27.5,29.48,West,275,0.0,8.0,83,0.00,,OVC015,0.00,VWS V14.01,2013-02-28 10:21:00,
2013-02-28 05:26:00,32.1,27.5,29.48,West,259,2.0,8.0,83,0.00,,OVC015,0.00,VWS V14.01,2013-02-28 10:26:00,
2013-02-28 05:31:00,32.1,27.5,29.48,WSW,239,2.0,8.0,83,0.00,,OVC015,0.00,VWS V14.01,2013-02-28 10:31:00,
2013-02-28 05:37:00,32.2,27.6,29.48,WSW,239,4.0,5.0,83,0.00,,OVC013,0.00,VWS V14.01,2013-02-28 10:37:00,
2013-02-28 05:42:00,32.1,27.5,29.48,WSW,257,4.0,8.0,83,0.00,,OVC013,0.00,VWS V14.01,2013-02-28 10:42:00,
2013-02-28 05:48:00,32.1,27.5,29.48,WSW,244,4.0,8.0,83,0.00,,OVC013,0.00,VWS V14.01,2013-02-28 10:48:00,
2013-02-28 05:54:00,32.2,27.6,29.48,WSW,256,3.0,8.0,83,0.00,,OVC013,0.00,VWS V14.01,2013-02-28 10:54:00,
2013-02-28 05:59:00,32.1,27.5,29.48,SW,234,1.0,8.0,83,0.00,,OVC013,0.00,VWS V14.01,2013-02-28 10:59:00,
2013-02-28 06:05:00,32.1,27.5,29.48,WSW,257,3.0,6.0,83,0.00,,OVC013,0.00,VWS V14.01,2013-02-28 11:05:00,
2013-02-28 06:10:00,32.2,27.9,29.48,SW,223,2.0,6.0,84,0.00,,OVC013,0.00,VWS V14.01,2013-02-28 11:10:00,
2013-02-28 06:16:00,32.2,27.9,29.48,SW,234,0.0,6.0,84,0.00,,OVC013,0.00,VWS V14.01,2013-02-28 11:16:00,
2013-02-28 06:21:00,32.2,27.9,29.48,WSW,250,3.0,6.0,84,0.00,,OVC013,0.00,VWS V14.01,2013-02-28 11:21:00,
2013-02-28 06:27:00,32.2,27.9,29.48,WSW,240,6.0,6.0,84,0.00,,OVC013,0.00,VWS V14.01,2013-02-28 11:27:00,
2013-02-28 06:32:00,32.2,27.9,29.48,South,189,2.0,7.0,84,0.00,,OVC013,0.00,VWS V14.01,2013-02-28 11:32:00,
2013-02-28 06:37:00,32.2,27.9,29.48,SW,225,2.0,5.0,84,0.00,,OVC013,0.00,VWS V14.01,2013-02-28 11:37:00,
2013-02-28 06:42:00,32.2,27.9,29.48,SSW,213,2.0,8.0,84,0.00,,OVC013,0.00,VWS V14.01,2013-02-28 11:42:00,
2013-02-28 06:47:00,32.2,27.9,29.49,WSW,241,2.0,8.0,84,0.00,,OVC013,0.00,VWS V14.01,2013-02-28 11:47:00,
2013-02-28 06:52:00,32.2,27.9,29.49,SW,229,0.0,8.0,84,0.00,,OVC013,0.00,VWS V14.01,2013-02-28 11:52:00,
2013-02-28 06:58:00,32.2,27.9,29.49,WSW,252,1.0,8.0,84,0.00,,OVC013,0.00,VWS V14.01,2013-02-28 11:58:00,
2013-02-28 07:04:00,32.2,27.9,29.49,WSW,248,3.0,8.0,84,0.00,,OVC013,0.00,VWS V14.01,2013-02-28 12:04:00,
2013-02-28 07:09:00,32.2,27.9,29.49,SSW,212,0.0,3.0,84,0.00,,OVC013,0.00,VWS V14.01,2013-02-28 12:09:00,
2013-02-28 07:14:00,32.2,27.9,29.49,SSW,204,1.0,4.0,84,0.00,,OVC013,0.00,VWS V14.01,2013-02-28 12:14:00,
2013-02-28 07:19:00,32.2,27.9,29.49,SW,230,2.0,4.0,84,0.00,,OVC013,0.00,VWS V14.01,2013-02-28 12:19:00,
2013-02-28 07:25:00,32.4,28.1,29.49,WSW,244,2.0,6.0,84,0.00,,OVC013,0.00,VWS V14.01,2013-02-28 12:25:00,
2013-02-28 07:30:00,32.4,28.1,29.49,SSW,211,2.0,6.0,84,0.00,,OVC013,0.00,VWS V14.01,2013-02-28 12:30:00,
2013-02-28 07:36:00,32.4,28.1,29.49,South,181,2.0,2.0,84,0.00,,OVC013,0.00,VWS V14.01,2013-02-28 12:36:00,
2013-02-28 07:41:00,32.4,28.1,29.49,SSW,211,2.0,5.0,84,0.00,,OVC013,0.00,VWS V14.01,2013-02-28 12:41:00,
2013-02-28 07:47:00,32.4,28.4,29.49,WSW,252,0.0,5.0,85,0.00,,OVC013,0.00,VWS V14.01,2013-02-28 12:47:00,
2013-02-28 07:52:00,32.4,28.4,29.49,SW,215,1.0,6.0,85,0.00,,OVC013,0.00,VWS V14.01,2013-02-28 12:52:00,
2013-02-28 07:58:00,32.2,28.2,29.49,WSW,246,2.0,6.0,85,0.00,,OVC013,0.00,VWS V14.01,2013-02-28 12:58:00,
2013-02-28 08:04:00,32.2,28.2,29.50,SW,223,2.0,6.0,85,0.00,,OVC013,0.00,VWS V14.01,2013-02-28 13:04:00,
2013-02-28 08:09:00,32.4,28.7,29.50,SW,234,0.0,4.0,86,0.00,,OVC013,0.00,VWS V14.01,2013-02-28 13:09:00,
2013-02-28 08:15:00,32.2,28.5,29.50,SW,233,0.0,4.0,86,0.00,,OVC013,0.00,VWS V14.01,2013-02-28 13:15:00,
2013-02-28 08:20:00,32.2,28.5,29.50,WSW,239,0.0,8.0,86,0.00,,OVC013,0.00,VWS V14.01,2013-02-28 13:20:00,
2013-02-28 08:26:00,32.2,28.5,29.50,WSW,240,3.0,8.0,86,0.00,,OVC013,0.00,VWS V14.01,2013-02-28 13:26:00,
2013-02-28 08:31:00,32.2,28.8,29.50,WSW,246,0.0,8.0,87,0.00,,OVC013,0.00,VWS V14.01,2013-02-28 13:31:00,
2013-02-28 08:36:00,32.2,28.8,29.50,SW,221,1.0,3.0,87,0.00,,OVC013,0.00,VWS V14.01,2013-02-28 13:36:00,
2013-02-28 08:41:00,32.2,29.0,29.50,SW,226,2.0,4.0,88,0.00,,OVC013,0.00,VWS V14.01,2013-02-28 13:41:00,
2013-02-28 08:47:00,32.2,29.0,29.50,SW,231,3.0,4.0,88,0.00,,OVC013,0.00,VWS V14.01,2013-02-28 13:47:00,
2013-02-28 08:52:00,32.2,29.0,29.50,SW,225,1.0,4.0,88,0.00,,OVC013,0.00,VWS V14.01,2013-02-28 13:52:00,
2013-02-28 08:57:00,32.2,29.0,29.50,SW,225,0.0,4.0,88,0.00,,OVC013,0.00,VWS V14.01,2013-02-28 13:57:00,
2013-02-28 09:02:00,32.2,29.3,29.51,SW,232,1.0,4.0,89,0.00,,OVC013,0.00,VWS V14.01,2013-02-28 14:02:00,
2013-02-28 09:07:00,32.4,29.5,29.51,SW,217,2.0,3.0,89,0.00,,,0.00,VWS V14.01,2013-02-28 14:07:00,
2013-02-28 09:12:00,32.4,29.5,29.51,SW,217,2.0,3.0,89,0.00,,,0.00,VWS V14.01,2013-02-28 14:12:00,
2013-02-28 09:18:00,32.4,29.5,29.51,SW,219,0.0,3.0,89,0.00,,,0.00,VWS V14.01,2013-02-28 14:18:00,
2013-02-28 09:24:00,32.4,29.5,29.51,West,259,1.0,3.0,89,0.00,,,0.00,VWS V14.01,2013-02-28 14:24:00,
2013-02-28 09:29:00,32.5,29.9,29.51,WSW,246,4.0,4.0,90,0.00,,,0.00,VWS V14.01,2013-02-28 14:29:00,
2013-02-28 09:34:00,32.5,29.9,29.51,SW,231,1.0,4.0,90,0.00,,,0.00,VWS V14.01,2013-02-28 14:34:00,
2013-02-28 09:39:00,32.7,30.1,29.51,SW,223,0.0,4.0,90,0.00,,,0.00,VWS V14.01,2013-02-28 14:39:00,
2013-02-28 09:45:00,32.8,30.2,29.51,SW,223,1.0,4.0,90,0.00,,,0.00,VWS V14.01,2013-02-28 14:45:00,
2013-02-28 09:50:00,32.9,30.3,29.51,SW,236,2.0,4.0,90,0.00,,,0.00,VWS V14.01,2013-02-28 14:50:00,
2013-02-28 09:55:00,32.9,30.0,29.51,SSW,200,3.0,4.0,89,0.00,,,0.00,VWS V14.01,2013-02-28 14:55:00,
2013-02-28 10:00:00,33.1,30.2,29.51,West,281,3.0,6.0,89,0.00,,,0.00,VWS V14.01,2013-02-28 15:00:00,
2013-02-28 10:06:00,33.1,29.9,29.50,South,190,2.0,4.0,88,0.00,,,0.00,VWS V14.01,2013-02-28 15:06:00,
2013-02-28 10:11:00,33.2,30.0,29.50,WSW,250,1.0,5.0,88,0.00,,,0.00,VWS V14.01,2013-02-28 15:11:00,
2013-02-28 10:17:00,33.4,30.2,29.51,WSW,246,0.0,5.0,88,0.00,,,0.00,VWS V14.01,2013-02-28 15:17:00,
2013-02-28 10:22:00,33.4,30.2,29.51,SW,223,2.0,6.0,88,0.00,,,0.00,VWS V14.01,2013-02-28 15:22:00,
2013-02-28 10:28:00,33.4,30.2,29.51,SW,234,3.0,6.0,88,0.00,,,0.00,VWS V14.01,2013-02-28 15:28:00,
2013-02-28 10:34:00,33.4,30.2,29.51,WSW,239,0.0,6.0,88,0.00,,,0.00,VWS V14.01,2013-02-28 15:34:00,
2013-02-28 10:39:00,33.5,30.3,29.51,West,259,2.0,5.0,88,0.01,,,0.01,VWS V14.01,2013-02-28 15:39:00,
2013-02-28 10:45:00,33.7,30.5,29.51,SW,235,0.0,5.0,88,0.01,,,0.01,VWS V14.01,2013-02-28 15:45:00,
2013-02-28 10:50:00,33.7,30.5,29.51,WSW,255,0.0,6.0,88,0.01,,,0.01,VWS V14.01,2013-02-28 15:50:00,
2013-02-28 10:55:00,33.8,30.6,29.51,SW,233,2.0,6.0,88,0.01,,,0.01,VWS V14.01,2013-02-28 15:55:00,
2013-02-28 11:00:00,34.0,30.5,29.51,SW,232,2.0,6.0,87,0.02,,,0.02,VWS V14.01,2013-02-28 16:00:00,
2013-02-28 11:05:00,34.0,30.5,29.51,WSW,240,0.0,4.0,87,0.02,,,0.02,VWS V14.01,2013-02-28 16:05:00,
2013-02-28 11:10:00,34.0,30.8,29.51,SSW,205,0.0,4.0,88,0.02,,,0.02,VWS V14.01,2013-02-28 16:10:00,
2013-02-28 11:16:00,34.1,30.9,29.51,SSW,205,2.0,4.0,88,0.02,,,0.02,VWS V14.01,2013-02-28 16:16:00,
2013-02-28 11:21:00,34.1,30.9,29.52,WSW,242,1.0,5.0,88,0.02,,,0.02,VWS V14.01,2013-02-28 16:21:00,
2013-02-28 11:26:00,34.0,30.8,29.52,SW,229,0.0,5.0,88,0.02,,,0.02,VWS V14.01,2013-02-28 16:26:00,
2013-02-28 11:31:00,34.1,30.9,29.52,SW,229,0.0,5.0,88,0.02,,,0.02,VWS V14.01,2013-02-28 16:31:00,
2013-02-28 11:37:00,34.1,30.9,29.53,SW,218,0.0,4.0,88,0.02,,,0.02,VWS V14.01,2013-02-28 16:37:00,
2013-02-28 11:42:00,34.3,31.1,29.53,SW,218,0.0,4.0,88,0.02,,,0.02,VWS V14.01,2013-02-28 16:42:00,
2013-02-28 11:48:00,34.4,31.2,29.53,SW,217,0.0,4.0,88,0.02,,,0.02,VWS V14.01,2013-02-28 16:48:00,
2013-02-28 11:54:00,34.4,31.2,29.53,SW,222,0.0,10.0,88,0.03,,,0.03,VWS V14.01,2013-02-28 16:54:00,
2013-02-28 11:59:00,34.6,31.4,29.53,SW,222,0.0,10.0,88,0.03,,,0.03,VWS V14.01,2013-02-28 16:59:00,
2013-02-28 12:04:00,34.6,31.4,29.53,SW,222,0.0,10.0,88,0.03,,,0.03,VWS V14.01,2013-02-28 17:04:00,
2013-02-28 12:10:00,34.6,31.4,29.53,SW,222,0.0,2.0,88,0.01,,,0.03,VWS V14.01,2013-02-28 17:10:00,
2013-02-28 12:16:00,34.7,31.5,29.53,SW,222,2.0,2.0,88,0.01,,,0.03,VWS V14.01,2013-02-28 17:16:00,
2013-02-28 12:21:00,34.6,31.4,29.53,SW,222,0.0,2.0,88,0.01,,,0.03,VWS V14.01,2013-02-28 17:21:00,
2013-02-28 12:27:00,34.6,31.7,29.53,SW,223,0.0,2.0,89,0.01,,,0.03,VWS V14.01,2013-02-28 17:27:00,
2013-02-28 12:32:00,34.6,31.7,29.54,SW,223,0.0,2.0,89,0.01,,,0.03,VWS V14.01,2013-02-28 17:32:00,
2013-02-28 12:37:00,34.4,31.2,29.54,SW,228,1.0,4.0,88,0.01,,,0.03,VWS V14.01,2013-02-28 17:37:00,
2013-02-28 12:42:00,34.1,31.2,29.54,SW,234,1.0,4.0,89,0.01,,,0.03,VWS V14.01,2013-02-28 17:42:00,
2013-02-28 12:48:00,34.0,31.1,29.54,SW,234,0.0,4.0,89,0.01,,,0.03,VWS V14.01,2013-02-28 17:48:00,
2013-02-28 12:54:00,34.0,31.1,29.54,SW,234,0.0,4.0,89,0.01,,,0.03,VWS V14.01,2013-02-28 17:54:00,
2013-02-28 12:59:00,34.0,31.1,29.54,SW,217,0.0,4.0,89,0.02,,,0.04,VWS V14.01,2013-02-28 17:59:00,
2013-02-28 13:05:00,34.0,31.1,29.55,SW,219,0.0,1.0,89,0.01,,,0.04,VWS V14.01,2013-02-28 18:05:00,
2013-02-28 13:10:00,34.0,31.1,29.55,SW,219,0.0,1.0,89,0.01,,,0.04,VWS V14.01,2013-02-28 18:10:00,
2013-02-28 13:16:00,33.8,30.9,29.55,SW,220,0.0,3.0,89,0.01,,,0.04,VWS V14.01,2013-02-28 18:16:00,
2013-02-28 13:21:00,33.8,30.9,29.55,South,169,0.0,4.0,89,0.01,,,0.04,VWS V14.01,2013-02-28 18:21:00,
2013-02-28 13:27:00,33.8,31.2,29.55,South,169,0.0,4.0,90,0.01,,,0.04,VWS V14.01,2013-02-28 18:27:00,
2013-02-28 13:32:00,33.8,31.2,29.55,South,169,0.0,4.0,90,0.01,,,0.04,VWS V14.01,2013-02-28 18:32:00,
2013-02-28 13:37:00,33.8,31.2,29.55,South,169,0.0,0.0,90,0.01,,,0.04,VWS V14.01,2013-02-28 18:37:00,
2013-02-28 13:42:00,33.8,31.2,29.55,South,179,0.0,4.0,90,0.01,,,0.04,VWS V14.01,2013-02-28 18:42:00,
2013-02-28 13:47:00,33.8,31.2,29.55,SW,235,0.0,4.0,90,0.01,,,0.04,VWS V14.01,2013-02-28 18:47:00,
2013-02-28 13:52:00,33.7,31.1,29.55,SW,235,0.0,4.0,90,0.01,,,0.04,VWS V14.01,2013-02-28 18:52:00,
2013-02-28 13:57:00,33.7,31.1,29.55,SW,235,0.0,4.0,90,0.01,,,0.04,VWS V14.01,2013-02-28 18:57:00,
2013-02-28 14:02:00,33.7,31.1,29.56,SW,235,0.0,4.0,90,0.01,,,0.04,VWS V14.01,2013-02-28 19:02:00,
2013-02-28 14:07:00,33.8,31.2,29.56,SW,235,0.0,0.0,90,0.00,,OVC007,0.04,VWS V14.01,2013-02-28 19:07:00,
2013-02-28 14:12:00,33.8,31.2,29.56,South,184,2.0,4.0,90,0.00,,OVC007,0.04,VWS V14.01,2013-02-28 19:12:00,
2013-02-28 14:18:00,33.8,31.2,29.56,South,184,0.0,4.0,90,0.00,,OVC007,0.04,VWS V14.01,2013-02-28 19:18:00,
2013-02-28 14:24:00,33.8,31.2,29.56,East,90,0.0,4.0,90,0.00,,OVC007,0.04,VWS V14.01,2013-02-28 19:24:00,
2013-02-28 14:29:00,33.8,31.2,29.56,WSW,257,0.0,4.0,90,0.00,,OVC007,0.04,VWS V14.01,2013-02-28 19:29:00,
2013-02-28 14:34:00,33.8,31.2,29.57,WSW,257,1.0,4.0,90,0.00,,OVC007,0.04,VWS V14.01,2013-02-28 19:34:00,
2013-02-28 14:39:00,34.0,31.4,29.57,WSW,257,0.0,1.0,90,0.00,,OVC007,0.04,VWS V14.01,2013-02-28 19:39:00,
2013-02-28 14:44:00,34.0,31.4,29.57,WSW,257,0.0,1.0,90,0.00,,OVC007,0.04,VWS V14.01,2013-02-28 19:44:00,
2013-02-28 14:49:00,34.3,31.7,29.57,WSW,256,0.0,1.0,90,0.00,,OVC007,0.04,VWS V14.01,2013-02-28 19:49:00,
2013-02-28 14:55:00,34.3,31.4,29.57,WSW,256,0.0,2.0,89,0.00,,OVC007,0.04,VWS V14.01,2013-02-28 19:55:00,
2013-02-28 15:00:00,34.4,31.5,29.57,WSW,256,0.0,2.0,89,0.00,,OVC007,0.04,VWS V14.01,2013-02-28 20:00:00,
2013-02-28 15:05:00,34.6,31.7,29.58,WSW,256,0.0,0.0,89,0.00,,OVC012,0.04,VWS V14.01,2013-02-28 20:05:00,
2013-02-28 15:10:00,34.7,31.8,29.58,WSW,256,0.0,1.0,89,0.00,,OVC012,0.04,VWS V14.01,2013-02-28 20:10:00,
2013-02-28 15:16:00,34.7,31.8,29.58,WSW,257,0.0,1.0,89,0.00,,OVC012,0.04,VWS V14.01,2013-02-28 20:16:00,
2013-02-28 15:21:00,34.7,31.8,29.59,WSW,257,1.0,2.0,89,0.00,,,0.04,VWS V14.01,2013-02-28 20:21:00,
2013-02-28 15:27:00,34.7,31.5,29.59,NNW,338,1.0,3.0,88,0.00,,,0.04,VWS V14.01,2013-02-28 20:27:00,
2013-02-28 15:32:00,34.7,31.5,29.59,NW,313,0.0,3.0,88,0.00,,,0.04,VWS V14.01,2013-02-28 20:32:00,
2013-02-28 15:37:00,34.7,31.5,29.59,NW,313,0.0,3.0,88,0.00,,,0.04,VWS V14.01,2013-02-28 20:37:00,
2013-02-28 15:42:00,34.7,31.2,29.59,NNE,15,0.0,3.0,87,0.00,,,0.04,VWS V14.01,2013-02-28 20:42:00,
2013-02-28 15:48:00,34.7,31.2,29.60,North,11,1.0,4.0,87,0.00,,,0.04,VWS V14.01,2013-02-28 20:48:00,
2013-02-28 15:54:00,34.7,31.2,29.60,North,11,0.0,4.0,87,0.00,,,0.04,VWS V14.01,2013-02-28 20:54:00,
2013-02-28 15:59:00,34.9,31.1,29.60,North,11,0.0,4.0,86,0.00,,,0.04,VWS V14.01,2013-02-28 20:59:00,
2013-02-28 16:04:00,34.7,31.0,29.61,North,11,0.0,4.0,86,0.00,,OVC019,0.04,VWS V14.01,2013-02-28 21:04:00,
2013-02-28 16:09:00,34.7,31.2,29.61,North,11,0.0,2.0,87,0.00,,OVC019,0.04,VWS V14.01,2013-02-28 21:09:00,
2013-02-28 16:14:00,34.6,31.1,29.61,NNE,17,0.0,2.0,87,0.00,,OVC019,0.04,VWS V14.01,2013-02-28 21:14:00,
2013-02-28 16:19:00,34.6,31.1,29.61,NNE,17,0.0,2.0,87,0.00,,OVC019,0.04,VWS V14.01,2013-02-28 21:19:00,
2013-02-28 16:25:00,34.6,31.1,29.61,SW,232,4.0,4.0,87,0.00,,OVC019,0.04,VWS V14.01,2013-02-28 21:25:00,
2013-02-28 16:30:00,34.4,30.9,29.61,SSW,195,0.0,5.0,87,0.00,,OVC019,0.04,VWS V14.01,2013-02-28 21:30:00,
2013-02-28 16:35:00,34.3,30.8,29.62,SSW,195,0.0,0.0,87,0.00,,,0.04,VWS V14.01,2013-02-28 21:35:00,
2013-02-28 16:40:00,34.3,30.8,29.62,SSW,195,0.0,1.0,87,0.00,,,0.04,VWS V14.01,2013-02-28 21:40:00,
2013-02-28 16:45:00,34.3,30.8,29.62,SSW,198,0.0,2.0,87,0.00,,,0.04,VWS V14.01,2013-02-28 21:45:00,
2013-02-28 16:50:00,34.3,30.8,29.63,SSW,198,0.0,2.0,87,0.00,,,0.04,VWS V14.01,2013-02-28 21:50:00,
2013-02-28 16:56:00,34.3,30.8,29.63,SSW,198,0.0,2.0,87,0.00,,,0.04,VWS V14.01,2013-02-28 21:56:00,
2013-02-28 17:01:00,34.1,30.6,29.63,SSW,193,1.0,3.0,87,0.00,,,0.04,VWS V14.01,2013-02-28 22:01:00,
2013-02-28 17:06:00,34.1,30.6,29.64,SSW,194,0.0,0.0,87,0.00,,,0.04,VWS V14.01,2013-02-28 22:06:00,
2013-02-28 17:11:00,34.0,30.3,29.64,SSW,194,0.0,2.0,86,0.00,,,0.04,VWS V14.01,2013-02-28 22:11:00,
2013-02-28 17:17:00,33.8,30.1,29.65,SSW,194,0.0,2.0,86,0.00,,,0.04,VWS V14.01,2013-02-28 22:17:00,
2013-02-28 17:22:00,33.8,30.1,29.65,SSW,194,0.0,2.0,86,0.00,,,0.04,VWS V14.01,2013-02-28 22:22:00,
2013-02-28 17:28:00,33.7,30.0,29.65,South,178,0.0,2.0,86,0.00,,,0.04,VWS V14.01,2013-02-28 22:28:00,
2013-02-28 17:34:00,33.7,30.0,29.66,North,10,0.0,3.0,86,0.00,,,0.04,VWS V14.01,2013-02-28 22:34:00,
2013-02-28 17:39:00,33.7,30.0,29.66,North,10,1.0,2.0,86,0.00,,,0.04,VWS V14.01,2013-02-28 22:39:00,
2013-02-28 17:45:00,33.5,29.8,29.66,North,10,0.0,3.0,86,0.00,,,0.04,VWS V14.01,2013-02-28 22:45:00,
2013-02-28 17:50:00,33.5,29.8,29.66,North,10,0.0,3.0,86,0.00,,,0.04,VWS V14.01,2013-02-28 22:50:00,
2013-02-28 17:56:00,33.4,29.7,29.66,North,10,0.0,3.0,86,0.00,,,0.04,VWS V14.01,2013-02-28 22:56:00,
2013-02-28 18:01:00,33.4,29.7,29.66,North,9,0.0,3.0,86,0.00,,,0.04,VWS V14.01,2013-02-28 23:01:00,
2013-02-28 18:06:00,33.2,29.5,29.67,North,9,0.0,2.0,86,0.00,,,0.04,VWS V14.01,2013-02-28 23:06:00,
2013-02-28 18:11:00,33.1,29.4,29.67,North,9,0.0,2.0,86,0.00,,,0.04,VWS V14.01,2013-02-28 23:11:00,
2013-02-28 18:17:00,33.1,29.4,29.68,North,9,0.0,2.0,86,0.00,,,0.04,VWS V14.01,2013-02-28 23:17:00,
2013-02-28 18:22:00,32.9,28.9,29.68,North,9,0.0,2.0,85,0.00,,,0.04,VWS V14.01,2013-02-28 23:22:00,
2013-02-28 18:27:00,32.9,28.9,29.68,North,9,0.0,3.0,85,0.00,,,0.04,VWS V14.01,2013-02-28 23:27:00,
2013-02-28 18:32:00,32.8,28.8,29.69,SE,132,0.0,5.0,85,0.00,,,0.04,VWS V14.01,2013-02-28 23:32:00,
2013-02-28 18:37:00,32.8,28.5,29.69,SE,132,0.0,1.0,84,0.00,,,0.04,VWS V14.01,2013-02-28 23:37:00,
2013-02-28 18:42:00,32.7,28.4,29.69,SSW,212,0.0,5.0,84,0.00,,,0.04,VWS V14.01,2013-02-28 23:42:00,
2013-02-28 18:48:00,32.8,28.5,29.71,SSW,213,0.0,5.0,84,0.00,,,0.04,VWS V14.01,2013-02-28 23:48:00,
2013-02-28 18:54:00,32.8,28.5,29.71,SSW,213,0.0,5.0,84,0.00,,,0.04,VWS V14.01,2013-02-28 23:54:00,
2013-02-28 18:59:00,32.7,28.4,29.71,SSW,213,0.0,5.0,84,0.00,,,0.04,VWS V14.01,2013-02-28 23:59:00,
2013-02-28 19:04:00,32.7,28.4,29.71,SSW,213,0.0,5.0,84,0.00,,,0.04,VWS V14.01,2013-03-01 00:04:00,
2013-02-28 19:09:00,32.5,27.9,29.71,SE,145,0.0,4.0,83,0.00,,,0.04,VWS V14.01,2013-03-01 00:09:00,
2013-02-28 19:15:00,32.5,27.6,29.71,SE,146,0.0,4.0,82,0.00,,,0.04,VWS V14.01,2013-03-01 00:15:00,
2013-02-28 19:20:00,32.5,27.6,29.72,WNW,296,0.0,5.0,82,0.00,,,0.04,VWS V14.01,2013-03-01 00:20:00,
2013-02-28 19:26:00,32.5,27.3,29.72,WNW,296,0.0,5.0,81,0.00,,,0.04,VWS V14.01,2013-03-01 00:26:00,
2013-02-28 19:31:00,32.5,27.6,29.72,WNW,296,1.0,5.0,82,0.00,,,0.04,VWS V14.01,2013-03-01 00:31:00,
2013-02-28 19:37:00,32.5,27.3,29.73,South,182,1.0,2.0,81,0.00,,OVC022,0.04,VWS V14.01,2013-03-01 00:37:00,
2013-02-28 19:42:00,32.4,27.2,29.73,WSW,244,0.0,4.0,81,0.00,,OVC022,0.04,VWS V14.01,2013-03-01 00:42:00,
2013-02-28 19:47:00,32.4,27.2,29.74,SSE,157,0.0,4.0,81,0.00,,OVC022,0.04,VWS V14.01,2013-03-01 00:47:00,
2013-02-28 19:52:00,32.4,27.2,29.74,ENE,63,0.0,4.0,81,0.00,,OVC022,0.04,VWS V14.01,2013-03-01 00:52:00,
2013-02-28 19:58:00,32.2,27.0,29.74,NE,54,0.0,4.0,81,0.00,,OVC022,0.04,VWS V14.01,2013-03-01 00:58:00,
2013-02-28 20:04:00,32.2,27.0,29.74,ESE,112,1.0,5.0,81,0.00,,OVC018,0.04,VWS V14.01,2013-03-01 01:04:00,
2013-02-28 20:09:00,32.2,27.0,29.74,NE,45,0.0,2.0,81,0.00,,OVC018,0.04,VWS V14.01,2013-03-01 01:09:00,
2013-02-28 20:15:00,32.1,27.2,29.74,ENE,66,0.0,3.0,82,0.00,,OVC018,0.04,VWS V14.01,2013-03-01 01:15:00,
2013-02-28 20:20:00,32.1,26.9,29.75,West,262,0.0,4.0,81,0.00,,OVC018,0.04,VWS V14.01,2013-03-01 01:20:00,
2013-02-28 20:25:00,32.1,26.9,29.75,West,262,0.0,4.0,81,0.00,,OVC018,0.04,VWS V14.01,2013-03-01 01:25:00,
2013-02-28 20:30:00,31.9,27.0,29.75,West,262,0.0,4.0,82,0.00,,OVC018,0.04,VWS V14.01,2013-03-01 01:30:00,
2013-02-28 20:35:00,31.9,26.7,29.76,West,262,1.0,2.0,81,0.00,,OVC014,0.04,VWS V14.01,2013-03-01 01:35:00,
2013-02-28 20:40:00,31.8,26.6,29.76,West,262,1.0,2.0,81,0.00,,OVC014,0.04,VWS V14.01,2013-03-01 01:40:00,
2013-02-28 20:45:00,31.8,26.9,29.76,West,262,0.0,2.0,82,0.00,,OVC014,0.04,VWS V14.01,2013-03-01 01:45:00,
2013-02-28 20:50:00,31.8,26.9,29.76,West,262,0.0,3.0,82,0.00,,OVC014,0.04,VWS V14.01,2013-03-01 01:50:00,
2013-02-28 20:56:00,31.6,26.5,29.76,West,262,0.0,3.0,81,0.00,,OVC014,0.04,VWS V14.01,2013-03-01 01:56:00,
2013-02-28 21:01:00,31.6,26.5,29.76,NE,36,0.0,4.0,81,0.00,,OVC014,0.04,VWS V14.01,2013-03-01 02:01:00,
2013-02-28 21:06:00,31.6,26.5,29.77,NE,35,1.0,1.0,81,0.00,,OVC014,0.04,VWS V14.01,2013-03-01 02:06:00,
2013-02-28 21:11:00,31.6,26.5,29.77,NE,35,0.0,2.0,81,0.00,,OVC014,0.04,VWS V14.01,2013-03-01 02:11:00,
2013-02-28 21:17:00,31.6,26.5,29.77,NE,35,0.0,2.0,81,0.00,,OVC014,0.04,VWS V14.01,2013-03-01 02:17:00,
2013-02-28 21:22:00,31.6,26.8,29.77,North,355,3.0,4.0,82,0.00,,OVC016,0.04,VWS V14.01,2013-03-01 02:22:00,
2013-02-28 21:28:00,31.6,26.8,29.77,North,355,0.0,4.0,82,0.00,,OVC016,0.04,VWS V14.01,2013-03-01 02:28:00,
2013-02-28 21:34:00,31.5,26.6,29.77,North,355,2.0,4.0,82,0.00,,OVC016,0.04,VWS V14.01,2013-03-01 02:34:00,
2013-02-28 21:39:00,31.5,26.6,29.77,WNW,283,3.0,3.0,82,0.00,,OVC016,0.04,VWS V14.01,2013-03-01 02:39:00,
2013-02-28 21:45:00,31.5,26.6,29.77,WSW,254,0.0,3.0,82,0.00,,OVC016,0.04,VWS V14.01,2013-03-01 02:45:00,
2013-02-28 21:50:00,31.5,26.6,29.77,WSW,254,0.0,3.0,82,0.00,,OVC016,0.04,VWS V14.01,2013-03-01 02:50:00,
2013-02-28 21:55:00,31.5,26.9,29.77,WSW,254,0.0,3.0,83,0.00,,OVC016,0.04,VWS V14.01,2013-03-01 02:55:00,
2013-02-28 22:00:00,31.5,26.9,29.77,WSW,254,0.0,3.0,83,0.00,,OVC016,0.04,VWS V14.01,2013-03-01 03:00:00,
2013-02-28 22:05:00,31.5,26.9,29.77,WSW,254,0.0,0.0,83,0.00,,OVC016,0.04,VWS V14.01,2013-03-01 03:05:00,
2013-02-28 22:10:00,31.5,27.2,29.77,WSW,254,0.0,2.0,84,0.00,,OVC016,0.04,VWS V14.01,2013-03-01 03:10:00,
2013-02-28 22:16:00,31.3,27.0,29.77,WSW,254,0.0,2.0,84,0.00,,OVC016,0.04,VWS V14.01,2013-03-01 03:16:00,
2013-02-28 22:21:00,31.3,27.0,29.77,WSW,254,0.0,2.0,84,0.00,,OVC016,0.04,VWS V14.01,2013-03-01 03:21:00,
2013-02-28 22:27:00,31.2,27.2,29.77,WSW,254,0.0,3.0,85,0.00,,OVC016,0.04,VWS V14.01,2013-03-01 03:27:00,
2013-02-28 22:32:00,31.2,27.2,29.77,WSW,254,0.0,3.0,85,0.00,,OVC016,0.04,VWS V14.01,2013-03-01 03:32:00,
2013-02-28 22:38:00,31.0,27.0,29.77,WSW,254,0.0,2.0,85,0.00,,OVC016,0.04,VWS V14.01,2013-03-01 03:38:00,
2013-02-28 22:44:00,31.0,26.7,29.77,North,355,1.0,3.0,84,0.00,,OVC016,0.04,VWS V14.01,2013-03-01 03:44:00,
2013-02-28 22:49:00,31.0,27.0,29.78,North,351,0.0,3.0,85,0.00,,OVC038,0.04,VWS V14.01,2013-03-01 03:49:00,
2013-02-28 22:55:00,31.0,27.0,29.78,North,349,0.0,3.0,85,0.00,,OVC038,0.04,VWS V14.01,2013-03-01 03:55:00,
2013-02-28 23:00:00,30.9,26.9,29.78,North,349,0.0,3.0,85,0.00,,OVC038,0.04,VWS V14.01,2013-03-01 04:00:00,
2013-02-28 23:05:00,30.9,26.9,29.77,North,349,0.0,0.0,85,0.00,,OVC032,0.04,VWS V14.01,2013-03-01 04:05:00,
2013-02-28 23:10:00,30.9,26.9,29.77,North,351,0.0,1.0,85,0.00,,OVC032,0.04,VWS V14.01,2013-03-01 04:10:00,
2013-02-28 23:16:00,30.9,26.9,29.77,North,351,1.0,1.0,85,0.00,,OVC032,0.04,VWS V14.01,2013-03-01 04:16:00,
2013-02-28 23:21:00,30.7,26.5,29.77,North,351,0.0,3.0,84,0.00,,OVC032,0.04,VWS V14.01,2013-03-01 04:21:00,
2013-02-28 23:27:00,30.7,26.5,29.77,North,351,0.0,3.0,84,0.00,,OVC032,0.04,VWS V14.01,2013-03-01 04:27:00,
2013-02-28 23:32:00,30.6,26.4,29.78,North,351,0.0,3.0,84,0.00,,OVC032,0.04,VWS V14.01,2013-03-01 04:32:00,
2013-02-28 23:37:00,30.6,26.4,29.78,North,351,1.0,1.0,84,0.00,,OVC032,0.04,VWS V14.01,2013-03-01 04:37:00,
2013-02-28 23:42:00,30.4,26.1,29.78,North,351,0.0,1.0,84,0.00,,OVC032,0.04,VWS V14.01,2013-03-01 04:42:00,
2013-02-28 23:48:00,30.4,26.1,29.78,North,351,0.0,3.0,84,0.00,,OVC032,0.04,VWS V14.01,2013-03-01 04:48:00,
2013-02-28 23:54:00,30.4,26.1,29.78,North,351,0.0,3.0,84,0.00,,OVC032,0.04,VWS V14.01,2013-03-01 04:54:00,
2013-02-28 23:59:00,30.4,26.1,29.78,North,351,1.0,3.0,84,0.00,,OVC032,0.04,VWS V14.01,2013-03-01 04:59:00,